Time;durP1;ratioP1;P1;durP2;ratioP2;P2;SDS_P1;SDS_P2;PMS_P1;PMS_P2;Temp;Humidity;BMP_temperature;BMP_pressure;BME280_temperature;BME280_humidity;BME280_pressure;Samples;Min_cycle;Max_cycle;Signal;HPM_P1;HPM_P2
2022/08/02 00:00:02;;;;;;;;;;;;;;;27.57;41.67;99716.41;2091484;28;19919;-49
2022/08/02 00:01:03;;;;;;;;;;;;;;;27.58;41.56;99720.03;2090340;28;20368;-48
2022/08/02 00:02:03;;;;;;;;;;;;;;;27.58;41.57;99717.28;2088369;28;19916;-51
2022/08/02 00:03:04;;;;;;;;;;;;;;;27.58;41.49;99722.81;2099120;28;20022;-49
2022/08/02 00:04:05;;;;;;;;;;;;;;;27.58;41.44;99723.69;2093006;28;19916;-48
2022/08/02 00:05:05;;;;;;;;;;;;;;;27.57;41.46;99716.41;2095629;28;20279;-48
2022/08/02 00:06:06;;;;;;;;;;;;;;;27.56;41.52;99713.84;2094989;28;20218;-47
2022/08/02 00:07:06;;;;;;;;;;;;;;;27.58;41.58;99722.81;2095349;28;19916;-48
2022/08/02 00:08:07;;;;;;;;;;;;;;;27.57;41.38;99721.13;2094231;28;19961;-50
2022/08/02 00:09:08;;;;;;;;;;;;;;;27.57;41.74;99718.34;2090957;28;20276;-50
2022/08/02 00:10:10;;;;;;;;;;;;;;;27.56;41.61;99717.50;2092903;28;19960;-48
2022/08/02 00:11:10;;;;;;;;;;;;;;;27.57;41.71;99723.88;2089162;28;19909;-49
2022/08/02 00:12:14;;;;;;;;;;;;;;;27.57;41.64;99723.88;2092416;28;19908;-48
2022/08/02 00:13:14;;;;;;;;;;;;;;;27.57;41.70;99718.34;2093450;28;20116;-51
2022/08/02 00:14:14;;;;;;;;;;;;;;;27.56;41.66;99719.41;2094102;28;19932;-48
2022/08/02 00:15:15;;;;;;;;;;;;;;;27.56;41.57;99724.94;2090807;28;20345;-50
2022/08/02 00:16:15;;;;;;;;;;;;;;;27.56;41.65;99719.41;2087606;28;19927;-48
2022/08/02 00:17:16;;;;;;;;;;;;;;;27.56;41.75;99724.94;2090887;28;19920;-47
2022/08/02 00:18:16;;;;;;;;;;;;;;;27.55;41.73;99723.25;2091468;28;19942;-48
2022/08/02 00:19:16;;;;;;;;;;;;;;;27.55;41.76;99723.25;2092902;28;19919;-48
2022/08/02 00:20:17;;;;;;;;;;;;;;;27.55;41.54;99717.72;2091479;28;19920;-49
2022/08/02 00:21:18;;;;;;;;;;;;;;;27.54;41.77;99721.56;2093536;28;19908;-48
2022/08/02 00:22:18;;;;;;;;;;;;;;;27.53;41.77;99715.13;2092880;28;19916;-50
2022/08/02 00:23:18;;;;;;;;;;;;;;;27.54;41.70;99721.56;2092508;28;20326;-48
2022/08/02 00:24:19;;;;;;;;;;;;;;;27.54;41.67;99721.56;2092004;28;19923;-49
2022/08/02 00:25:19;;;;;;;;;;;;;;;27.53;41.77;99723.44;2090943;28;19921;-48
2022/08/02 00:26:19;;;;;;;;;;;;;;;27.54;41.51;99716.88;2093902;28;19916;-48
2022/08/02 00:27:19;;;;;;;;;;;;;;;27.55;41.81;99720.47;2087562;28;19923;-50
2022/08/02 00:28:20;;;;;;;;;;;;;;;27.54;41.52;99719.63;2088790;28;19916;-48
2022/08/02 00:29:20;;;;;;;;;;;;;;;27.54;41.81;99718.78;2092509;28;19916;-52
2022/08/02 00:30:20;;;;;;;;;;;;;;;27.55;41.50;99723.25;2088922;28;20003;-51
2022/08/02 00:31:21;;;;;;;;;;;;;;;27.55;41.73;99717.72;2089116;28;19912;-48
2022/08/02 00:32:22;;;;;;;;;;;;;;;27.54;41.73;99716.88;2087096;28;19920;-49
2022/08/02 00:33:22;;;;;;;;;;;;;;;27.54;41.59;99716.88;2091447;28;19920;-48
2022/08/02 00:34:23;;;;;;;;;;;;;;;27.53;41.63;99714.28;2087955;28;20365;-48
2022/08/02 00:35:23;;;;;;;;;;;;;;;27.53;41.81;99717.06;2089766;28;19928;-49
2022/08/02 00:36:23;;;;;;;;;;;;;;;27.54;41.51;99719.63;2088919;28;20578;-50
2022/08/02 00:37:24;;;;;;;;;;;;;;;27.54;41.57;99719.63;2091644;28;19923;-49
2022/08/02 00:38:24;;;;;;;;;;;;;;;27.52;41.61;99716.22;2092575;28;19908;-47
2022/08/02 00:39:24;;;;;;;;;;;;;;;27.53;41.70;99714.28;2093304;28;20282;-50
2022/08/02 00:40:25;;;;;;;;;;;;;;;27.53;41.75;99717.91;2087947;28;19958;-48
2022/08/02 00:41:25;;;;;;;;;;;;;;;27.53;41.59;99715.13;2089306;28;19977;-48
2022/08/02 00:42:25;;;;;;;;;;;;;;;27.53;41.68;99714.28;2088019;28;19924;-49
2022/08/02 00:43:25;;;;;;;;;;;;;;;27.53;41.60;99715.13;2092598;28;20552;-47
2022/08/02 00:44:26;;;;;;;;;;;;;;;27.52;41.78;99712.59;2089112;28;20407;-50
2022/08/02 00:45:27;;;;;;;;;;;;;;;27.53;41.73;99715.13;2088336;28;19996;-48
2022/08/02 00:46:27;;;;;;;;;;;;;;;27.53;41.47;99711.53;2094313;28;20273;-47
2022/08/02 00:47:27;;;;;;;;;;;;;;;27.53;41.69;99714.28;2092753;28;19947;-48
2022/08/02 00:48:27;;;;;;;;;;;;;;;27.52;41.63;99709.84;2092857;28;19942;-48
2022/08/02 00:49:28;;;;;;;;;;;;;;;27.52;41.67;99719.00;2091131;28;19909;-48
2022/08/02 00:50:28;;;;;;;;;;;;;;;27.52;41.76;99712.59;2091618;28;20133;-48
2022/08/02 00:51:28;;;;;;;;;;;;;;;27.52;41.77;99709.84;2091085;28;20306;-49
2022/08/02 00:52:29;;;;;;;;;;;;;;;27.51;41.60;99720.06;2094491;28;19916;-47
2022/08/02 00:53:29;;;;;;;;;;;;;;;27.51;41.74;99716.41;2091775;28;19923;-48
2022/08/02 00:54:29;;;;;;;;;;;;;;;27.50;41.85;99714.72;2092665;28;19923;-47
2022/08/02 00:55:30;;;;;;;;;;;;;;;27.50;41.89;99725.81;2093379;28;20348;-49
2022/08/02 00:56:30;;;;;;;;;;;;;;;27.50;41.69;99717.50;2092134;28;20250;-48
2022/08/02 00:57:31;;;;;;;;;;;;;;;27.51;41.88;99719.19;2092141;28;19920;-47
2022/08/02 00:58:31;;;;;;;;;;;;;;;27.50;41.78;99725.81;2086708;28;19920;-49
2022/08/02 00:59:32;;;;;;;;;;;;;;;27.51;41.71;99724.72;2089826;28;19920;-50
2022/08/02 01:00:32;;;;;;;;;;;;;;;27.51;41.82;99717.31;2094672;28;20304;-48
2022/08/02 01:01:38;;;;;;;;;;;;;;;27.51;41.74;99710.88;2093491;28;19938;-48
2022/08/02 01:02:39;;;;;;;;;;;;;;;27.51;41.67;99716.41;2091065;28;19916;-49
2022/08/02 01:03:39;;;;;;;;;;;;;;;27.50;41.50;99718.34;2092425;28;20229;-48
2022/08/02 01:04:39;;;;;;;;;;;;;;;27.50;41.81;99714.72;2092578;28;20715;-47
2022/08/02 01:05:40;;;;;;;;;;;;;;;27.50;41.78;99715.56;2092486;28;20003;-47
2022/08/02 01:06:41;;;;;;;;;;;;;;;27.50;41.57;99710.03;2094809;28;19938;-50
2022/08/02 01:07:41;;;;;;;;;;;;;;;27.49;41.58;99711.13;2092017;28;19916;-48
2022/08/02 01:08:41;;;;;;;;;;;;;;;27.50;41.79;99720.28;2092237;28;20433;-49
2022/08/02 01:09:43;;;;;;;;;;;;;;;27.49;41.62;99711.13;2094646;28;19912;-48
2022/08/02 01:10:43;;;;;;;;;;;;;;;27.50;41.50;99714.72;2088745;28;19916;-48
2022/08/02 01:11:43;;;;;;;;;;;;;;;27.48;41.57;99712.16;2087597;28;19916;-48
2022/08/02 01:12:46;;;;;;;;;;;;;;;27.48;41.56;99712.16;2091098;28;19915;-49
2022/08/02 01:13:47;;;;;;;;;;;;;;;27.48;41.80;99706.63;2093345;28;19926;-47
2022/08/02 01:14:49;;;;;;;;;;;;;;;27.48;41.71;99712.16;2086570;28;19916;-51
2022/08/02 01:15:54;;;;;;;;;;;;;;;27.48;41.85;99705.78;2091243;28;19920;-48
2022/08/02 01:17:01;;;;;;;;;;;;;;;27.48;41.69;99709.41;2082950;28;19923;-48
2022/08/02 01:18:04;;;;;;;;;;;;;;;27.50;41.68;99714.72;2089105;28;19916;-50
2022/08/02 01:19:09;;;;;;;;;;;;;;;27.50;41.67;99714.72;2092389;28;19920;-49
2022/08/02 01:20:10;;;;;;;;;;;;;;;27.48;41.87;99714.09;2093249;28;19923;-49
2022/08/02 01:21:22;;;;;;;;;;;;;;;27.48;41.70;99705.78;2091099;28;19979;-49
2022/08/02 01:22:22;;;;;;;;;;;;;;;27.48;41.72;99711.31;2093981;28;20079;-50
2022/08/02 01:23:23;;;;;;;;;;;;;;;27.47;42.01;99709.63;2092710;28;19924;-49
2022/08/02 01:24:29;;;;;;;;;;;;;;;27.48;42.00;99711.31;2097137;28;20307;-49
2022/08/02 01:25:33;;;;;;;;;;;;;;;27.47;42.01;99701.34;2105682;28;19916;-52
2022/08/02 01:26:46;;;;;;;;;;;;;;;27.46;42.06;99699.63;2106962;28;19916;-51
2022/08/02 01:28:05;;;;;;;;;;;;;;;27.46;41.66;99702.38;2101977;28;20386;-51
2022/08/02 01:29:21;;;;;;;;;;;;;;;27.46;41.85;99708.75;2099925;28;20412;-51
2022/08/02 01:30:21;;;;;;;;;;;;;;;27.45;41.96;99703.47;2106247;28;19919;-50
2022/08/02 01:31:22;;;;;;;;;;;;;;;27.46;42.05;99705.16;2105330;28;20489;-50
2022/08/02 01:32:24;;;;;;;;;;;;;;;27.45;41.96;99700.69;2100028;28;19986;-50
2022/08/02 01:33:27;;;;;;;;;;;;;;;27.45;41.87;99706.22;2105186;28;19955;-47
2022/08/02 01:34:36;;;;;;;;;;;;;;;27.45;41.89;99709.00;2098097;28;19939;-48
2022/08/02 01:35:40;;;;;;;;;;;;;;;27.45;41.72;99695.16;2092612;28;20581;-49
2022/08/02 01:36:43;;;;;;;;;;;;;;;27.46;41.89;99702.38;2095233;28;19916;-48
2022/08/02 01:37:47;;;;;;;;;;;;;;;27.46;41.86;99708.75;2089493;28;19931;-51
2022/08/02 01:38:49;;;;;;;;;;;;;;;27.45;41.85;99696.00;2091154;28;20271;-48
2022/08/02 01:39:59;;;;;;;;;;;;;;;27.44;41.94;99698.97;2095817;28;20078;-50
2022/08/02 01:41:01;;;;;;;;;;;;;;;27.45;41.92;99695.16;2091035;28;20343;-50
2022/08/02 01:42:03;;;;;;;;;;;;;;;27.45;41.68;99696.00;2089851;28;19927;-48
2022/08/02 01:43:04;;;;;;;;;;;;;;;27.45;41.94;99700.69;2102498;28;19916;-49
2022/08/02 01:44:06;;;;;;;;;;;;;;;27.45;42.01;99703.47;2090483;28;20211;-48
2022/08/02 01:45:08;;;;;;;;;;;;;;;27.45;41.96;99700.69;2095225;28;20643;-51
2022/08/02 01:46:11;;;;;;;;;;;;;;;27.45;42.00;99703.47;2089227;28;19921;-47
2022/08/02 01:47:16;;;;;;;;;;;;;;;27.45;41.87;99706.22;2094867;28;20023;-49
2022/08/02 01:48:18;;;;;;;;;;;;;;;27.45;41.77;99709.00;2093333;28;19916;-48
2022/08/02 01:49:20;;;;;;;;;;;;;;;27.44;41.88;99699.84;2080678;28;20420;-50
2022/08/02 01:50:23;;;;;;;;;;;;;;;27.45;41.87;99703.47;2082850;28;19924;-48
2022/08/02 01:52:47;;;;;;;;;;;;;;;27.45;41.74;99700.69;2097807;28;19967;-49
2022/08/02 01:53:48;;;;;;;;;;;;;;;27.44;41.89;99702.63;2092825;28;19912;-47
2022/08/02 01:55:10;;;;;;;;;;;;;;;27.44;41.97;99698.97;2089623;28;19916;-51
2022/08/02 01:56:11;;;;;;;;;;;;;;;27.44;41.74;99704.50;2096163;28;19963;-48
2022/08/02 01:57:13;;;;;;;;;;;;;;;27.44;41.62;99699.84;2092784;28;20523;-48
2022/08/02 01:58:15;;;;;;;;;;;;;;;27.44;41.67;99698.97;2095584;28;20361;-49
2022/08/02 01:59:17;;;;;;;;;;;;;;;27.43;41.85;99703.66;2094319;28;19938;-45
2022/08/02 02:00:19;;;;;;;;;;;;;;;27.44;41.54;99701.75;2091734;28;19924;-48
2022/08/02 02:01:21;;;;;;;;;;;;;;;27.44;41.57;99704.50;2093289;28;19959;-46
2022/08/02 02:02:22;;;;;;;;;;;;;;;27.44;41.72;99698.97;2094870;28;20419;-47
2022/08/02 02:03:23;;;;;;;;;;;;;;;27.43;41.86;99703.66;2091922;28;20029;-47
2022/08/02 02:04:25;;;;;;;;;;;;;;;27.44;41.56;99698.97;2094186;28;19992;-45
2022/08/02 02:05:27;;;;;;;;;;;;;;;27.43;41.64;99697.28;2093989;28;20187;-47
2022/08/02 02:06:28;;;;;;;;;;;;;;;27.43;41.75;99705.59;2098275;28;19999;-46
2022/08/02 02:07:31;;;;;;;;;;;;;;;27.42;41.80;99698.34;2093464;28;19969;-47
2022/08/02 02:08:35;;;;;;;;;;;;;;;27.43;41.65;99702.81;2092670;28;19998;-46
2022/08/02 02:09:37;;;;;;;;;;;;;;;27.42;41.65;99698.34;2088639;28;19916;-48
2022/08/02 02:10:38;;;;;;;;;;;;;;;27.41;41.68;99694.72;2090829;28;19985;-47
2022/08/02 02:11:40;;;;;;;;;;;;;;;27.42;41.87;99698.34;2090920;28;20601;-45
2022/08/02 02:12:43;;;;;;;;;;;;;;;27.42;41.75;99696.44;2094905;28;19916;-46
2022/08/02 02:13:44;;;;;;;;;;;;;;;27.43;41.59;99700.03;2091867;28;20298;-44
2022/08/02 02:14:44;;;;;;;;;;;;;;;27.42;41.66;99703.91;2092223;28;19916;-44
2022/08/02 02:15:47;;;;;;;;;;;;;;;27.43;41.57;99697.28;2090663;28;19973;-46
2022/08/02 02:16:48;;;;;;;;;;;;;;;27.42;41.60;99695.59;2090025;28;19932;-45
2022/08/02 02:17:50;;;;;;;;;;;;;;;27.42;41.74;99701.13;2094236;28;19912;-44
2022/08/02 02:18:51;;;;;;;;;;;;;;;27.43;41.87;99702.81;2089350;28;20013;-47
2022/08/02 02:19:52;;;;;;;;;;;;;;;27.43;41.85;99694.50;2093029;28;19989;-46
2022/08/02 02:20:53;;;;;;;;;;;;;;;27.43;41.60;99702.81;2093738;28;20040;-46
2022/08/02 02:21:53;;;;;;;;;;;;;;;27.42;41.76;99701.97;2093206;28;20301;-47
2022/08/02 02:22:54;;;;;;;;;;;;;;;27.43;41.88;99697.28;2091384;28;19927;-46
2022/08/02 02:23:54;;;;;;;;;;;;;;;27.43;41.82;99702.81;2094364;28;20415;-45
2022/08/02 02:24:54;;;;;;;;;;;;;;;27.42;41.92;99701.13;2091900;28;19967;-46
2022/08/02 02:25:56;;;;;;;;;;;;;;;27.43;41.67;99705.59;2091428;28;20682;-45
2022/08/02 02:27:00;;;;;;;;;;;;;;;27.42;41.74;99709.44;2092677;28;19970;-45
2022/08/02 02:28:03;;;;;;;;;;;;;;;27.43;41.68;99713.88;2090608;28;19911;-45
2022/08/02 02:29:05;;;;;;;;;;;;;;;27.42;41.57;99712.19;2090908;28;19927;-46
2022/08/02 02:30:05;;;;;;;;;;;;;;;27.42;41.86;99703.91;2094793;28;20092;-45
2022/08/02 02:31:07;;;;;;;;;;;;;;;27.42;41.69;99714.97;2094550;28;19924;-46
2022/08/02 02:32:07;;;;;;;;;;;;;;;27.41;41.76;99716.00;2095786;28;20448;-46
2022/08/02 02:33:09;;;;;;;;;;;;;;;27.42;41.55;99717.72;2087465;28;20040;-45
2022/08/02 02:34:12;;;;;;;;;;;;;;;27.42;41.79;99714.97;2093385;28;19920;-45
2022/08/02 02:35:15;;;;;;;;;;;;;;;27.42;41.57;99714.97;2086717;28;20018;-46
2022/08/02 02:36:17;;;;;;;;;;;;;;;27.42;41.52;99709.44;2094184;28;19916;-46
2022/08/02 02:37:21;;;;;;;;;;;;;;;27.41;41.56;99711.31;2092550;28;20398;-45
2022/08/02 02:38:21;;;;;;;;;;;;;;;27.42;41.57;99712.19;2094759;28;19963;-46
2022/08/02 02:39:22;;;;;;;;;;;;;;;27.41;41.84;99707.72;2091082;28;20172;-45
2022/08/02 02:40:24;;;;;;;;;;;;;;;27.41;41.70;99710.47;2096980;28;19955;-45
2022/08/02 02:41:25;;;;;;;;;;;;;;;27.41;41.55;99710.47;2092210;28;19922;-46
2022/08/02 02:42:27;;;;;;;;;;;;;;;27.41;41.76;99716.00;2095307;28;19920;-45
2022/08/02 02:43:30;;;;;;;;;;;;;;;27.40;41.54;99708.78;2094758;28;20150;-46
2022/08/02 02:44:33;;;;;;;;;;;;;;;27.40;41.65;99717.09;2091479;28;19914;-45
2022/08/02 02:45:34;;;;;;;;;;;;;;;27.38;41.72;99716.44;2092077;28;19916;-45
2022/08/02 02:46:35;;;;;;;;;;;;;;;27.40;41.61;99717.09;2092644;28;19916;-46
2022/08/02 02:47:36;;;;;;;;;;;;;;;27.40;41.70;99711.56;2096296;28;19997;-46
2022/08/02 02:48:37;;;;;;;;;;;;;;;27.40;41.60;99714.31;2090194;28;20018;-45
2022/08/02 02:49:37;;;;;;;;;;;;;;;27.40;41.81;99720.69;2097830;28;20253;-46
2022/08/02 02:50:38;;;;;;;;;;;;;;;27.40;41.55;99725.41;2091891;28;19916;-44
2022/08/02 02:51:39;;;;;;;;;;;;;;;27.41;41.66;99718.78;2092820;28;19955;-49
2022/08/02 02:52:40;;;;;;;;;;;;;;;27.39;41.77;99716.25;2094163;28;19907;-49
2022/08/02 02:53:42;;;;;;;;;;;;;;;27.40;41.55;99725.41;2089566;28;20370;-48
2022/08/02 02:54:44;;;;;;;;;;;;;;;27.39;41.64;99719.00;2086812;28;19916;-44
2022/08/02 02:55:44;;;;;;;;;;;;;;;27.40;41.71;99719.84;2093131;28;20491;-47
2022/08/02 02:56:46;;;;;;;;;;;;;;;27.40;41.77;99719.84;2092687;28;19915;-47
2022/08/02 02:57:46;;;;;;;;;;;;;;;27.40;41.82;99714.31;2093869;28;20878;-46
2022/08/02 02:58:47;;;;;;;;;;;;;;;27.39;41.69;99721.78;2090413;28;19908;-46
2022/08/02 02:59:48;;;;;;;;;;;;;;;27.39;41.76;99713.47;2093459;28;21089;-45
2022/08/02 03:02:07;;;;;;;;;;;;;;;27.39;41.85;99709.84;2088379;28;19916;-47
2022/08/02 03:03:08;;;;;;;;;;;;;;;27.40;41.63;99719.84;2096374;28;20231;-48
2022/08/02 03:04:10;;;;;;;;;;;;;;;27.40;41.45;99714.31;2093281;28;19935;-46
2022/08/02 03:05:11;;;;;;;;;;;;;;;27.40;41.74;99714.31;2091550;28;19923;-47
2022/08/02 03:06:12;;;;;;;;;;;;;;;27.40;41.74;99719.84;2089298;28;19911;-46
2022/08/02 03:07:12;;;;;;;;;;;;;;;27.39;41.45;99712.59;2092421;28;20461;-44
2022/08/02 03:08:12;;;;;;;;;;;;;;;27.39;41.62;99712.59;2092758;28;20265;-45
2022/08/02 03:09:13;;;;;;;;;;;;;;;27.38;41.43;99716.44;2092450;28;19922;-44
2022/08/02 03:10:13;;;;;;;;;;;;;;;27.38;41.61;99710.91;2089307;28;19961;-45
2022/08/02 03:11:14;;;;;;;;;;;;;;;27.38;41.75;99720.06;2091237;28;19939;-47
2022/08/02 03:12:15;;;;;;;;;;;;;;;27.38;41.67;99721.97;2094466;28;20237;-46
2022/08/02 03:13:16;;;;;;;;;;;;;;;27.38;41.48;99721.97;2088775;28;19916;-46
2022/08/02 03:14:17;;;;;;;;;;;;;;;27.38;41.43;99724.75;2098115;28;20023;-46
2022/08/02 03:15:18;;;;;;;;;;;;;;;27.37;41.50;99726.69;2089152;28;19912;-46
2022/08/02 03:16:18;;;;;;;;;;;;;;;27.38;41.60;99727.53;2096827;28;19954;-46
2022/08/02 03:17:18;;;;;;;;;;;;;;;27.36;41.43;99720.28;2092739;28;19923;-48
2022/08/02 03:18:28;;;;;;;;;;;;;;;27.35;41.41;99724.09;2092932;28;19994;-45
2022/08/02 03:19:29;;;;;;;;;;;;;;;27.35;41.41;99724.09;2089805;28;21106;-49
2022/08/02 03:20:29;;;;;;;;;;;;;;;27.35;41.56;99724.09;2093107;28;19916;-45
2022/08/02 03:21:29;;;;;;;;;;;;;;;27.35;41.59;99726.88;2092572;28;20346;-45
2022/08/02 03:22:29;;;;;;;;;;;;;;;27.35;41.56;99723.25;2092686;28;19904;-46
2022/08/02 03:23:30;;;;;;;;;;;;;;;27.36;41.73;99724.94;2092966;28;19916;-45
2022/08/02 03:24:31;;;;;;;;;;;;;;;27.35;41.65;99720.50;2093151;28;20623;-45
2022/08/02 03:25:32;;;;;;;;;;;;;;;27.35;41.50;99724.09;2098175;28;19924;-46
2022/08/02 03:26:32;;;;;;;;;;;;;;;27.34;41.77;99727.94;2088679;28;20316;-45
2022/08/02 03:27:33;;;;;;;;;;;;;;;27.35;41.73;99721.34;2098021;28;20002;-45
2022/08/02 03:28:33;;;;;;;;;;;;;;;27.35;41.68;99718.56;2088238;28;20023;-45
2022/08/02 03:29:33;;;;;;;;;;;;;;;27.35;41.68;99728.78;2091550;28;19923;-46
2022/08/02 03:30:34;;;;;;;;;;;;;;;27.35;41.66;99720.50;2088587;28;19918;-44
2022/08/02 03:31:35;;;;;;;;;;;;;;;27.35;41.63;99724.09;2090262;28;20160;-44
2022/08/02 03:32:37;;;;;;;;;;;;;;;27.35;41.77;99718.56;2088491;28;20757;-47
2022/08/02 03:33:37;;;;;;;;;;;;;;;27.36;41.62;99716.66;2090454;28;19928;-44
2022/08/02 03:34:38;;;;;;;;;;;;;;;27.36;41.58;99720.28;2091498;28;20006;-45
2022/08/02 03:35:40;;;;;;;;;;;;;;;27.34;41.73;99714.13;2090349;28;20069;-45
2022/08/02 03:36:42;;;;;;;;;;;;;;;27.34;41.58;99716.00;2092602;28;20374;-47
2022/08/02 03:37:42;;;;;;;;;;;;;;;27.35;41.59;99724.09;2091165;28;19916;-46
2022/08/02 03:38:43;;;;;;;;;;;;;;;27.34;41.87;99714.13;2093153;28;20380;-47
2022/08/02 03:39:44;;;;;;;;;;;;;;;27.33;41.69;99720.69;2090800;28;20171;-44
2022/08/02 03:40:45;;;;;;;;;;;;;;;27.35;41.58;99717.72;2093115;28;20368;-45
2022/08/02 03:41:47;;;;;;;;;;;;;;;27.35;41.70;99724.09;2093246;28;20725;-45
2022/08/02 03:42:48;;;;;;;;;;;;;;;27.34;41.64;99722.41;2089314;28;19923;-45
2022/08/02 03:43:49;;;;;;;;;;;;;;;27.34;41.64;99719.66;2094173;28;19923;-46
2022/08/02 03:44:50;;;;;;;;;;;;;;;27.34;41.80;99719.66;2091539;28;19972;-44
2022/08/02 03:45:51;;;;;;;;;;;;;;;27.35;41.83;99723.25;2091494;28;20076;-45
2022/08/02 03:46:51;;;;;;;;;;;;;;;27.35;41.81;99717.72;2092227;28;19973;-46
2022/08/02 03:47:52;;;;;;;;;;;;;;;27.34;41.59;99719.66;2088160;28;20003;-48
2022/08/02 03:48:53;;;;;;;;;;;;;;;27.34;41.76;99722.41;2092821;28;19922;-45
2022/08/02 03:49:54;;;;;;;;;;;;;;;27.33;41.69;99720.69;2087328;28;20003;-48
2022/08/02 03:50:55;;;;;;;;;;;;;;;27.34;41.93;99721.53;2089313;28;19995;-46
2022/08/02 03:51:55;;;;;;;;;;;;;;;27.33;41.90;99715.16;2089236;28;19920;-44
2022/08/02 03:52:56;;;;;;;;;;;;;;;27.33;41.81;99709.63;2087231;28;20588;-46
2022/08/02 03:53:56;;;;;;;;;;;;;;;27.32;41.65;99721.78;2097690;28;19916;-46
2022/08/02 03:54:56;;;;;;;;;;;;;;;27.32;41.95;99716.25;2094935;28;19919;-46
2022/08/02 03:55:57;;;;;;;;;;;;;;;27.32;41.66;99718.16;2085328;28;19916;-46
2022/08/02 03:56:58;;;;;;;;;;;;;;;27.32;41.74;99713.47;2083422;28;20213;-45
2022/08/02 03:57:58;;;;;;;;;;;;;;;27.31;41.61;99705.38;2085334;28;19917;-45
2022/08/02 03:59:06;;;;;;;;;;;;;;;27.31;41.90;99716.44;2094201;28;19926;-45
2022/08/02 04:00:07;;;;;;;;;;;;;;;27.31;41.53;99711.75;2086688;28;19913;-46
2022/08/02 04:01:08;;;;;;;;;;;;;;;27.31;41.54;99717.28;2086507;28;19974;-44
2022/08/02 04:02:09;;;;;;;;;;;;;;;27.31;41.59;99717.28;2092027;28;19915;-45
2022/08/02 04:03:09;;;;;;;;;;;;;;;27.31;41.59;99721.97;2092702;28;20675;-47
2022/08/02 04:04:09;;;;;;;;;;;;;;;27.31;41.64;99728.34;2089280;28;19960;-45
2022/08/02 04:05:10;;;;;;;;;;;;;;;27.32;41.64;99718.16;2090465;28;19938;-44
2022/08/02 04:06:10;;;;;;;;;;;;;;;27.32;41.93;99724.53;2086936;28;19916;-47
2022/08/02 04:07:11;;;;;;;;;;;;;;;27.31;41.60;99717.28;2092074;28;19912;-45
2022/08/02 04:08:11;;;;;;;;;;;;;;;27.31;41.65;99722.81;2092861;28;20174;-46
2022/08/02 04:09:11;;;;;;;;;;;;;;;27.32;41.51;99719.00;2090315;28;20070;-46
2022/08/02 04:10:12;;;;;;;;;;;;;;;27.31;41.63;99717.28;2089757;28;20161;-46
2022/08/02 04:11:30;;;;;;;;;;;;;;;27.31;41.75;99720.06;2091241;28;20325;-45
2022/08/02 04:12:31;;;;;;;;;;;;;;;27.31;41.79;99719.22;2086775;28;20320;-44
2022/08/02 04:13:33;;;;;;;;;;;;;;;27.32;41.45;99719.00;2087428;28;20243;-45
2022/08/02 04:14:33;;;;;;;;;;;;;;;27.31;41.48;99722.81;2091635;28;19915;-45
2022/08/02 04:15:34;;;;;;;;;;;;;;;27.31;41.53;99722.81;2091578;28;19919;-46
2022/08/02 04:16:45;;;;;;;;;;;;;;;27.31;41.73;99710.91;2090047;28;19924;-45
2022/08/02 04:17:51;;;;;;;;;;;;;;;27.31;41.49;99717.28;2087622;28;19912;-44
2022/08/02 04:18:54;;;;;;;;;;;;;;;27.31;41.58;99716.44;2088670;28;20217;-45
2022/08/02 04:20:01;;;;;;;;;;;;;;;27.32;41.57;99718.16;2090345;28;19958;-44
2022/08/02 04:21:03;;;;;;;;;;;;;;;27.31;41.52;99717.28;2089510;28;19920;-46
2022/08/02 04:22:05;;;;;;;;;;;;;;;27.30;41.73;99721.13;2093387;28;19912;-46
2022/08/02 04:23:06;;;;;;;;;;;;;;;27.31;41.48;99717.28;2091669;28;20006;-46
2022/08/02 04:24:08;;;;;;;;;;;;;;;27.31;41.82;99708.13;2084304;28;19912;-44
2022/08/02 04:25:09;;;;;;;;;;;;;;;27.31;41.86;99721.97;2092498;28;19955;-45
2022/08/02 04:26:10;;;;;;;;;;;;;;;27.31;41.54;99722.81;2088010;28;20156;-44
2022/08/02 04:27:11;;;;;;;;;;;;;;;27.30;41.86;99721.13;2092917;28;19923;-44
2022/08/02 04:28:12;;;;;;;;;;;;;;;27.30;41.71;99721.13;2088541;28;19917;-48
2022/08/02 04:29:12;;;;;;;;;;;;;;;27.31;41.53;99717.28;2090322;28;19924;-46
2022/08/02 04:30:15;;;;;;;;;;;;;;;27.30;41.57;99721.13;2092262;28;19938;-45
2022/08/02 04:31:18;;;;;;;;;;;;;;;27.29;41.57;99719.44;2089943;28;19922;-45
2022/08/02 04:32:19;;;;;;;;;;;;;;;27.29;41.84;99724.97;2089458;28;20203;-45
2022/08/02 04:33:20;;;;;;;;;;;;;;;27.29;41.84;99718.56;2092919;28;19912;-44
2022/08/02 04:34:20;;;;;;;;;;;;;;;27.27;41.90;99716.03;2092219;28;19973;-44
2022/08/02 04:35:21;;;;;;;;;;;;;;;27.29;41.72;99726.88;2091927;28;19908;-45
2022/08/02 04:36:21;;;;;;;;;;;;;;;27.27;41.81;99718.78;2090797;28;20362;-44
2022/08/02 04:37:22;;;;;;;;;;;;;;;27.28;41.66;99725.19;2091814;28;19923;-45
2022/08/02 04:38:23;;;;;;;;;;;;;;;27.28;41.80;99723.25;2091724;28;19923;-45
2022/08/02 04:39:23;;;;;;;;;;;;;;;27.28;41.66;99728.78;2092262;28;20129;-45
2022/08/02 04:40:23;;;;;;;;;;;;;;;27.28;41.74;99728.78;2094232;28;19923;-44
2022/08/02 04:41:35;;;;;;;;;;;;;;;27.28;41.72;99739.84;2092813;28;20173;-45
2022/08/02 04:42:36;;;;;;;;;;;;;;;27.28;41.74;99734.31;2093762;28;20011;-44
2022/08/02 04:43:36;;;;;;;;;;;;;;;27.27;41.95;99732.63;2093392;28;19915;-45
2022/08/02 04:44:36;;;;;;;;;;;;;;;27.28;41.73;99731.56;2091303;28;19916;-44
2022/08/02 04:45:37;;;;;;;;;;;;;;;27.28;41.73;99730.72;2094103;28;19916;-44
2022/08/02 04:46:38;;;;;;;;;;;;;;;27.27;41.85;99738.16;2094947;28;20250;-45
2022/08/02 04:47:39;;;;;;;;;;;;;;;27.28;41.63;99731.56;2092864;28;19916;-44
2022/08/02 04:48:39;;;;;;;;;;;;;;;27.27;41.77;99732.63;2092666;28;19920;-44
2022/08/02 04:49:40;;;;;;;;;;;;;;;27.27;41.75;99735.41;2093066;28;20228;-45
2022/08/02 04:50:40;;;;;;;;;;;;;;;27.27;41.66;99729.88;2095743;28;20289;-46
2022/08/02 04:51:42;;;;;;;;;;;;;;;27.28;41.72;99739.84;2099568;28;19904;-45
2022/08/02 04:52:42;;;;;;;;;;;;;;;27.27;41.81;99740.94;2087789;28;20065;-44
2022/08/02 04:53:42;;;;;;;;;;;;;;;27.27;41.63;99738.16;2095795;28;20330;-46
2022/08/02 04:54:42;;;;;;;;;;;;;;;27.27;41.88;99738.16;2093383;28;20154;-46
2022/08/02 04:55:43;;;;;;;;;;;;;;;27.27;41.61;99735.41;2093507;28;19923;-44
2022/08/02 04:56:43;;;;;;;;;;;;;;;27.27;41.63;99738.16;2095446;28;19923;-43
2022/08/02 04:57:56;;;;;;;;;;;;;;;27.27;41.75;99740.94;2092743;28;20266;-44
2022/08/02 04:58:56;;;;;;;;;;;;;;;27.27;41.65;99738.16;2091927;28;19915;-44
2022/08/02 04:59:57;;;;;;;;;;;;;;;27.27;41.77;99737.31;2088722;28;19920;-44
2022/08/02 05:00:57;;;;;;;;;;;;;;;27.26;41.71;99736.44;2093497;28;20134;-45
2022/08/02 05:01:57;;;;;;;;;;;;;;;27.26;41.64;99739.22;2094676;28;19908;-45
2022/08/02 05:02:58;;;;;;;;;;;;;;;27.27;41.71;99740.94;2092544;28;19916;-45
2022/08/02 05:03:59;;;;;;;;;;;;;;;27.27;41.71;99734.56;2092120;28;20333;-44
2022/08/02 05:05:00;;;;;;;;;;;;;;;27.27;41.71;99737.31;2095647;28;19922;-45
2022/08/02 05:06:00;;;;;;;;;;;;;;;27.26;41.77;99738.38;2091859;28;19908;-44
2022/08/02 05:07:01;;;;;;;;;;;;;;;27.26;41.71;99741.97;2094249;28;20052;-43
2022/08/02 05:08:01;;;;;;;;;;;;;;;27.25;41.86;99734.75;2088558;28;19920;-44
2022/08/02 05:09:02;;;;;;;;;;;;;;;27.25;41.82;99754.13;2089996;28;19920;-43
2022/08/02 05:10:03;;;;;;;;;;;;;;;27.25;41.77;99756.06;2090510;28;19916;-45
2022/08/02 05:11:03;;;;;;;;;;;;;;;27.25;41.65;99756.06;2089187;28;19998;-45
2022/08/02 05:12:04;;;;;;;;;;;;;;;27.24;42.00;99749.66;2093058;28;20309;-45
2022/08/02 05:13:05;;;;;;;;;;;;;;;27.23;41.70;99747.94;2093087;28;19916;-45
2022/08/02 05:14:05;;;;;;;;;;;;;;;27.23;41.68;99750.72;2091354;28;20426;-45
2022/08/02 05:15:06;;;;;;;;;;;;;;;27.24;41.92;99749.66;2090385;28;20361;-44
2022/08/02 05:16:06;;;;;;;;;;;;;;;27.23;41.68;99753.47;2088235;28;19932;-44
2022/08/02 05:17:07;;;;;;;;;;;;;;;27.24;41.68;99751.56;2093492;28;19966;-45
2022/08/02 05:18:07;;;;;;;;;;;;;;;27.23;41.85;99752.63;2093758;28;19908;-45
2022/08/02 05:19:07;;;;;;;;;;;;;;;27.24;41.78;99760.75;2094027;28;20624;-44
2022/08/02 05:20:08;;;;;;;;;;;;;;;27.24;41.70;99760.75;2094682;28;20881;-44
2022/08/02 05:21:08;;;;;;;;;;;;;;;27.24;41.65;99760.75;2085854;28;19916;-45
2022/08/02 05:22:08;;;;;;;;;;;;;;;27.24;41.61;99760.75;2090557;28;19954;-46
2022/08/02 05:23:09;;;;;;;;;;;;;;;27.23;41.75;99758.16;2092012;28;20302;-44